createdAt,value
2017-08-11T00:00:20.214Z,0
2017-08-11T00:01:20.208Z,0
2017-08-11T00:02:19.899Z,0
2017-08-11T00:03:20.208Z,0
2017-08-11T00:04:20.206Z,0
2017-08-11T00:05:20.193Z,0
2017-08-11T00:06:19.884Z,0
2017-08-11T00:07:19.871Z,0
2017-08-11T00:08:19.876Z,0
2017-08-11T00:09:20.174Z,0
2017-08-11T00:10:20.173Z,0
2017-08-11T00:11:20.169Z,0
2017-08-11T00:12:19.855Z,0
2017-08-11T00:13:19.847Z,0
2017-08-11T00:14:20.158Z,0
2017-08-11T00:15:19.837Z,0
2017-08-11T00:16:19.856Z,0
2017-08-11T00:17:19.826Z,0
2017-08-11T00:18:19.825Z,0
2017-08-11T00:19:19.818Z,0
2017-08-11T00:20:20.125Z,0
2017-08-11T00:21:19.811Z,0
2017-08-11T00:22:20.116Z,0
2017-08-11T00:23:20.107Z,0
2017-08-11T00:24:19.490Z,0
2017-08-11T00:25:19.791Z,0
2017-08-11T00:26:20.090Z,0
2017-08-11T00:27:20.086Z,0
2017-08-11T00:28:19.780Z,0
2017-08-11T00:29:20.073Z,0
2017-08-11T00:30:19.769Z,0
2017-08-11T00:31:19.769Z,0
2017-08-11T00:32:20.055Z,0
2017-08-11T00:33:19.751Z,0
2017-08-11T00:34:19.743Z,0
2017-08-11T00:35:19.738Z,0
2017-08-11T00:36:20.041Z,0
2017-08-11T00:37:20.036Z,0
2017-08-11T00:38:20.038Z,0
2017-08-11T00:39:19.720Z,0
2017-08-11T00:40:19.414Z,0
2017-08-11T00:41:20.012Z,0
2017-08-11T00:42:20.017Z,0
2017-08-11T00:43:20.009Z,0
2017-08-11T00:44:20.004Z,0
2017-08-11T00:45:20.000Z,0
2017-08-11T00:46:20.018Z,0
2017-08-11T00:47:19.687Z,0
2017-08-11T00:48:19.680Z,0
2017-08-11T00:49:19.983Z,0
2017-08-11T00:50:20.001Z,0
2017-08-11T00:51:19.969Z,0
2017-08-11T00:52:19.965Z,0
2017-08-11T00:53:19.958Z,0
2017-08-11T00:54:19.952Z,0
2017-08-11T00:55:19.953Z,0
2017-08-11T00:56:19.941Z,0
2017-08-11T00:57:19.943Z,0
2017-08-11T00:58:19.931Z,0
2017-08-11T00:59:19.935Z,0
2017-08-11T01:00:19.923Z,0
2017-08-11T01:01:19.927Z,0
2017-08-11T01:02:19.912Z,0
2017-08-11T01:03:19.907Z,0
2017-08-11T01:04:19.909Z,0
2017-08-11T01:05:19.909Z,0
2017-08-11T01:06:19.902Z,0
2017-08-11T01:07:19.888Z,0
2017-08-11T01:08:19.581Z,0
2017-08-11T01:09:19.876Z,0
2017-08-11T01:10:19.879Z,0
2017-08-11T01:11:19.870Z,0
2017-08-11T01:12:19.864Z,0
2017-08-11T01:13:19.553Z,0
2017-08-11T01:14:19.853Z,0
2017-08-11T01:15:19.545Z,0
2017-08-11T01:16:19.543Z,0
2017-08-11T01:17:19.543Z,0
2017-08-11T01:18:19.531Z,0
2017-08-11T01:19:19.829Z,0
2017-08-11T01:20:19.827Z,0
2017-08-11T01:21:19.823Z,0
2017-08-11T01:22:19.215Z,0
2017-08-11T01:23:19.505Z,0
2017-08-11T01:24:19.807Z,0
2017-08-11T01:25:19.802Z,0
2017-08-11T01:26:19.490Z,0
2017-08-11T01:27:19.795Z,0
2017-08-11T01:28:19.786Z,0
2017-08-11T01:29:19.783Z,0
2017-08-11T01:30:19.777Z,0
2017-08-11T01:31:19.774Z,0
2017-08-11T01:32:19.763Z,0
2017-08-11T01:33:19.771Z,0
2017-08-11T01:34:19.773Z,0
2017-08-11T01:35:19.455Z,0
2017-08-11T01:36:19.138Z,0
2017-08-11T01:37:19.748Z,0
2017-08-11T01:38:19.744Z,0
2017-08-11T01:39:19.733Z,0
2017-08-11T01:40:19.728Z,0
2017-08-11T01:41:19.723Z,0
2017-08-11T01:42:19.721Z,0
2017-08-11T01:43:19.715Z,0
2017-08-11T01:44:19.407Z,0
2017-08-11T01:45:19.705Z,0
2017-08-11T01:46:19.702Z,0
2017-08-11T01:47:19.690Z,0
2017-08-11T01:48:19.691Z,0
2017-08-11T01:49:19.373Z,0
2017-08-11T01:50:19.676Z,0
2017-08-11T01:51:19.670Z,0
2017-08-11T01:52:19.671Z,0
2017-08-11T01:53:19.663Z,0
2017-08-11T01:54:19.658Z,0
2017-08-11T01:55:19.659Z,0
2017-08-11T01:56:19.344Z,0
2017-08-11T01:57:19.640Z,0
2017-08-11T01:58:19.636Z,0
2017-08-11T01:59:19.645Z,0
2017-08-11T02:00:19.329Z,0
2017-08-11T02:01:19.619Z,0
2017-08-11T02:02:19.618Z,0
2017-08-11T02:03:19.622Z,0
2017-08-11T02:04:19.305Z,0
2017-08-11T02:05:19.603Z,0
2017-08-11T02:06:19.601Z,0
2017-08-11T02:07:19.597Z,0
2017-08-11T02:08:19.593Z,0
2017-08-11T02:09:19.582Z,0
2017-08-11T02:10:19.585Z,0
2017-08-11T02:11:19.267Z,0
2017-08-11T02:12:19.570Z,0
2017-08-11T02:13:19.568Z,0
2017-08-11T02:14:19.560Z,0
2017-08-11T02:15:19.557Z,0
2017-08-11T02:16:19.547Z,0
2017-08-11T02:17:19.543Z,0
2017-08-11T02:18:19.236Z,0
2017-08-11T02:19:19.538Z,0
2017-08-11T02:20:19.524Z,0
2017-08-11T02:21:19.526Z,0
2017-08-11T02:22:19.516Z,0
2017-08-11T02:23:19.514Z,0
2017-08-11T02:24:19.512Z,0
2017-08-11T02:25:19.509Z,0
2017-08-11T02:26:19.501Z,0
2017-08-11T02:27:19.492Z,0
2017-08-11T02:28:19.486Z,0
2017-08-11T02:29:19.483Z,0
2017-08-11T02:30:19.486Z,0
2017-08-11T02:31:19.524Z,0
2017-08-11T02:32:19.492Z,0
2017-08-11T02:33:19.460Z,0
2017-08-11T02:34:19.454Z,0
2017-08-11T02:35:19.152Z,0
2017-08-11T02:36:19.144Z,0
2017-08-11T02:37:19.440Z,0
2017-08-11T02:38:19.436Z,0
2017-08-11T02:39:19.127Z,0
2017-08-11T02:40:19.434Z,0
2017-08-11T02:41:19.429Z,0
2017-08-11T02:42:19.418Z,0
2017-08-11T02:43:19.416Z,0
2017-08-11T02:44:19.410Z,0
2017-08-11T02:45:19.101Z,0
2017-08-11T02:46:19.392Z,0
2017-08-11T02:47:19.396Z,0
2017-08-11T02:48:19.388Z,0
2017-08-11T02:49:19.396Z,0
2017-08-11T02:50:19.378Z,0
2017-08-11T02:51:19.371Z,0
2017-08-11T02:52:19.372Z,0
2017-08-11T02:53:19.359Z,0
2017-08-11T02:54:19.374Z,0
2017-08-11T02:55:19.356Z,0
2017-08-11T02:56:19.346Z,0
2017-08-11T02:57:19.338Z,0
2017-08-11T02:58:19.345Z,0
2017-08-11T02:59:19.328Z,0
2017-08-11T03:00:19.023Z,0
2017-08-11T03:01:19.341Z,0
2017-08-11T03:02:19.320Z,0
2017-08-11T03:03:19.009Z,0
2017-08-11T03:04:19.315Z,0
2017-08-11T03:05:19.302Z,0
2017-08-11T03:06:19.291Z,0
2017-08-11T03:07:19.297Z,0
2017-08-11T03:08:19.289Z,0
2017-08-11T03:09:19.281Z,0
2017-08-11T03:10:19.275Z,0
2017-08-11T03:11:19.279Z,0
2017-08-11T03:12:18.963Z,0
2017-08-11T03:13:19.275Z,0
2017-08-11T03:14:19.253Z,0
2017-08-11T03:15:19.250Z,0
2017-08-11T03:16:19.249Z,0
2017-08-11T03:17:18.936Z,0
2017-08-11T03:18:19.237Z,0
2017-08-11T03:19:19.230Z,0
2017-08-11T03:20:19.231Z,0
2017-08-11T03:21:19.223Z,0
2017-08-11T03:22:18.912Z,0
2017-08-11T03:23:19.214Z,0
2017-08-11T03:24:19.211Z,0
2017-08-11T03:25:19.204Z,0
2017-08-11T03:26:19.196Z,0
2017-08-11T03:27:19.219Z,0
2017-08-11T03:28:19.185Z,0
2017-08-11T03:29:19.188Z,0
2017-08-11T03:30:19.181Z,0
2017-08-11T03:31:18.880Z,0
2017-08-11T03:32:19.165Z,0
2017-08-11T03:33:19.160Z,0
2017-08-11T03:34:19.172Z,0
2017-08-11T03:35:19.151Z,0
2017-08-11T03:36:19.149Z,0
2017-08-11T03:37:19.141Z,0
2017-08-11T03:38:19.137Z,0
2017-08-11T03:39:19.136Z,0
2017-08-11T03:40:19.129Z,0
2017-08-11T03:41:19.125Z,0
2017-08-11T03:42:19.116Z,0
2017-08-11T03:43:19.109Z,0
2017-08-11T03:44:18.804Z,0
2017-08-11T03:45:19.097Z,0
2017-08-11T03:46:19.099Z,0
2017-08-11T03:47:18.798Z,0
2017-08-11T03:48:19.091Z,0
2017-08-11T03:49:18.779Z,0
2017-08-11T03:50:18.772Z,0
2017-08-11T03:51:19.090Z,0
2017-08-11T03:52:18.762Z,0
2017-08-11T03:53:19.057Z,4
2017-08-11T03:54:19.052Z,4
2017-08-11T03:55:18.746Z,0
2017-08-11T03:56:19.044Z,4
2017-08-11T03:57:18.740Z,4
2017-08-11T03:58:19.060Z,8
2017-08-11T03:59:19.027Z,4
2017-08-11T04:00:18.722Z,8
2017-08-11T04:01:19.019Z,8
2017-08-11T04:02:18.713Z,12
2017-08-11T04:03:19.015Z,12
2017-08-11T04:04:19.007Z,12
2017-08-11T04:05:19.004Z,12
2017-08-11T04:06:18.992Z,12
2017-08-11T04:07:18.993Z,12
2017-08-11T04:08:19.002Z,12
2017-08-11T04:09:18.985Z,16
2017-08-11T04:10:18.974Z,12
2017-08-11T04:11:18.665Z,16
2017-08-11T04:12:18.961Z,20
2017-08-11T04:13:18.967Z,20
2017-08-11T04:14:18.673Z,20
2017-08-11T04:15:18.946Z,20
2017-08-11T04:16:18.942Z,20
2017-08-11T04:17:18.634Z,20
2017-08-11T04:18:18.930Z,20
2017-08-11T04:19:18.624Z,24
2017-08-11T04:20:18.923Z,28
2017-08-11T04:21:18.313Z,28
2017-08-11T04:22:18.625Z,32
2017-08-11T04:23:18.913Z,32
2017-08-11T04:24:18.912Z,32
2017-08-11T04:25:18.900Z,36
2017-08-11T04:26:18.595Z,40
2017-08-11T04:27:18.584Z,36
2017-08-11T04:28:18.883Z,44
2017-08-11T04:29:18.879Z,52
2017-08-11T04:30:18.878Z,60
2017-08-11T04:31:18.869Z,64
2017-08-11T04:32:18.869Z,72
2017-08-11T04:33:18.552Z,80
2017-08-11T04:34:18.852Z,88
2017-08-11T04:35:18.544Z,92
2017-08-11T04:36:18.543Z,100
2017-08-11T04:37:18.535Z,104
2017-08-11T04:38:18.224Z,104
2017-08-11T04:39:18.526Z,100
2017-08-11T04:40:18.517Z,88
2017-08-11T04:41:18.814Z,84
2017-08-11T04:42:18.810Z,88
2017-08-11T04:43:18.511Z,92
2017-08-11T04:44:18.498Z,96
2017-08-11T04:45:18.188Z,92
2017-08-11T04:46:18.797Z,88
2017-08-11T04:47:18.488Z,88
2017-08-11T04:48:18.479Z,92
2017-08-11T04:49:18.775Z,100
2017-08-11T04:50:18.774Z,108
2017-08-11T04:51:18.166Z,124
2017-08-11T04:52:18.461Z,148
2017-08-11T04:53:18.755Z,176
2017-08-11T04:54:18.764Z,188
2017-08-11T04:55:18.747Z,188
2017-08-11T04:56:18.739Z,184
2017-08-11T04:57:18.734Z,184
2017-08-11T04:58:18.730Z,180
2017-08-11T04:59:18.424Z,184
2017-08-11T05:00:18.754Z,192
2017-08-11T05:01:18.720Z,200
2017-08-11T05:02:18.720Z,208
2017-08-11T05:03:18.708Z,204
2017-08-11T05:04:18.702Z,200
2017-08-11T05:05:18.694Z,188
2017-08-11T05:06:18.387Z,180
2017-08-11T05:07:18.686Z,168
2017-08-11T05:08:18.683Z,164
2017-08-11T05:09:18.372Z,164
2017-08-11T05:10:18.672Z,172
2017-08-11T05:11:18.672Z,176
2017-08-11T05:12:18.045Z,184
2017-08-11T05:13:18.658Z,188
2017-08-11T05:14:18.659Z,196
2017-08-11T05:15:18.642Z,208
2017-08-11T05:16:18.641Z,220
2017-08-11T05:17:18.637Z,232
2017-08-11T05:18:18.626Z,248
2017-08-11T05:19:18.622Z,272
2017-08-11T05:20:18.009Z,300
2017-08-11T05:21:18.615Z,320
2017-08-11T05:22:18.613Z,332
2017-08-11T05:23:18.304Z,352
2017-08-11T05:24:18.610Z,384
2017-08-11T05:25:18.600Z,376
2017-08-11T05:26:18.584Z,356
2017-08-11T05:27:18.583Z,356
2017-08-11T05:28:18.273Z,344
2017-08-11T05:29:18.571Z,336
2017-08-11T05:30:18.566Z,324
2017-08-11T05:31:18.569Z,312
2017-08-11T05:32:18.562Z,316
2017-08-11T05:33:18.555Z,324
2017-08-11T05:34:18.547Z,332
2017-08-11T05:35:18.542Z,344
2017-08-11T05:36:18.538Z,356
2017-08-11T05:37:18.533Z,356
2017-08-11T05:38:18.528Z,344
2017-08-11T05:39:18.532Z,340
2017-08-11T05:40:18.211Z,332
2017-08-11T05:41:18.511Z,316
2017-08-11T05:42:18.206Z,304
2017-08-11T05:43:18.514Z,308
2017-08-11T05:44:18.490Z,324
2017-08-11T05:45:18.490Z,360
2017-08-11T05:46:18.493Z,388
2017-08-11T05:47:18.481Z,404
2017-08-11T05:48:17.869Z,432
2017-08-11T05:49:18.470Z,456
2017-08-11T05:50:18.469Z,524
2017-08-11T05:51:18.157Z,512
2017-08-11T05:52:18.457Z,496
2017-08-11T05:53:18.451Z,516
2017-08-11T05:54:18.138Z,540
2017-08-11T05:55:18.139Z,596
2017-08-11T05:56:18.444Z,660
2017-08-11T05:57:18.433Z,732
2017-08-11T05:58:18.121Z,820
2017-08-11T05:59:18.422Z,868
2017-08-11T06:00:18.433Z,904
2017-08-11T06:01:18.424Z,912
2017-08-11T06:02:18.419Z,924
2017-08-11T06:03:18.105Z,908
2017-08-11T06:04:18.411Z,928
2017-08-11T06:05:18.402Z,948
2017-08-11T06:06:18.400Z,976
2017-08-11T06:07:18.406Z,968
2017-08-11T06:08:18.084Z,940
2017-08-11T06:09:18.075Z,928
2017-08-11T06:10:18.086Z,924
2017-08-11T06:11:18.372Z,900
2017-08-11T06:12:18.367Z,912
2017-08-11T06:13:18.370Z,980
2017-08-11T06:14:18.358Z,1104
2017-08-11T06:15:18.351Z,1240
2017-08-11T06:16:18.346Z,1364
2017-08-11T06:17:18.342Z,1484
2017-08-11T06:18:18.337Z,1588
2017-08-11T06:19:18.339Z,1728
2017-08-11T06:20:18.325Z,1800
2017-08-11T06:21:18.319Z,1804
2017-08-11T06:22:18.007Z,1744
2017-08-11T06:23:18.309Z,1668
2017-08-11T06:24:17.999Z,1612
2017-08-11T06:25:18.299Z,1608
2017-08-11T06:26:18.295Z,1600
2017-08-11T06:27:18.300Z,1588
2017-08-11T06:28:17.990Z,1576
2017-08-11T06:29:18.279Z,1612
2017-08-11T06:30:18.282Z,1624
2017-08-11T06:31:18.273Z,1632
2017-08-11T06:32:18.270Z,1588
2017-08-11T06:33:18.258Z,1460
2017-08-11T06:34:18.256Z,1364
2017-08-11T06:35:18.259Z,1304
2017-08-11T06:36:17.328Z,1284
2017-08-11T06:37:18.244Z,1304
2017-08-11T06:38:18.240Z,1340
2017-08-11T06:39:18.236Z,1368
2017-08-11T06:40:18.224Z,1372
2017-08-11T06:41:18.226Z,1356
2017-08-11T06:42:18.220Z,1316
2017-08-11T06:43:18.213Z,1256
2017-08-11T06:44:17.905Z,1180
2017-08-11T06:45:17.897Z,1100
2017-08-11T06:46:18.200Z,1068
2017-08-11T06:47:18.199Z,1032
2017-08-11T06:48:18.190Z,1008
2017-08-11T06:49:18.174Z,1036
2017-08-11T06:50:17.872Z,1104
2017-08-11T06:51:18.169Z,1136
2017-08-11T06:52:18.167Z,1160
2017-08-11T06:53:17.857Z,1144
2017-08-11T06:54:18.164Z,1152
2017-08-11T06:55:18.163Z,1184
2017-08-11T06:56:18.150Z,1188
2017-08-11T06:57:17.842Z,1160
2017-08-11T06:58:18.139Z,1112
2017-08-11T06:59:17.832Z,1056
2017-08-11T07:00:17.895Z,984
2017-08-11T07:01:17.818Z,908
2017-08-11T07:02:17.815Z,824
2017-08-11T07:03:18.116Z,756
2017-08-11T07:04:17.808Z,716
2017-08-11T07:05:18.097Z,700
2017-08-11T07:06:18.098Z,712
2017-08-11T07:07:17.796Z,748
2017-08-11T07:08:18.093Z,804
2017-08-11T07:09:18.090Z,884
2017-08-11T07:10:17.780Z,988
2017-08-11T07:11:18.085Z,1108
2017-08-11T07:12:17.457Z,1220
2017-08-11T07:13:17.756Z,1296
2017-08-11T07:14:18.066Z,1372
2017-08-11T07:15:17.754Z,1436
2017-08-11T07:16:18.051Z,1488
2017-08-11T07:17:17.774Z,1548
2017-08-11T07:18:18.046Z,1624
2017-08-11T07:19:17.730Z,1740
2017-08-11T07:20:17.719Z,1828
2017-08-11T07:21:17.717Z,1860
2017-08-11T07:22:17.712Z,1940
2017-08-11T07:23:17.408Z,2076
2017-08-11T07:24:17.704Z,2236
2017-08-11T07:25:17.396Z,2304
2017-08-11T07:26:17.394Z,2320
2017-08-11T07:27:17.693Z,2504
2017-08-11T07:28:17.991Z,2624
2017-08-11T07:29:17.680Z,2688
2017-08-11T07:30:17.678Z,2704
2017-08-11T07:31:17.667Z,2644
2017-08-11T07:32:17.972Z,2796
2017-08-11T07:33:17.664Z,2888
2017-08-11T07:34:17.657Z,2916
2017-08-11T07:35:17.653Z,3028
2017-08-11T07:36:17.647Z,3216
2017-08-11T07:37:17.643Z,3200
2017-08-11T07:38:17.980Z,3204
2017-08-11T07:39:17.938Z,3232
2017-08-11T07:40:17.940Z,3440
2017-08-11T07:41:17.926Z,3792
2017-08-11T07:42:17.920Z,4048
2017-08-11T07:43:17.917Z,4032
2017-08-11T07:44:17.916Z,3960
2017-08-11T07:45:17.298Z,3932
2017-08-11T07:46:17.902Z,3956
2017-08-11T07:47:17.592Z,4036
2017-08-11T07:48:17.894Z,4164
2017-08-11T07:49:17.896Z,4276
2017-08-11T07:50:17.603Z,4384
2017-08-11T07:51:17.882Z,4260
2017-08-11T07:52:17.873Z,4164
2017-08-11T07:53:17.871Z,3908
2017-08-11T07:54:17.878Z,3444
2017-08-11T07:55:17.560Z,3188
2017-08-11T07:56:17.551Z,3092
2017-08-11T07:57:17.859Z,2960
2017-08-11T07:58:17.851Z,2844
2017-08-11T07:59:17.843Z,2708
2017-08-11T08:00:17.838Z,2584
2017-08-11T08:01:17.831Z,2472
2017-08-11T08:02:17.831Z,2436
2017-08-11T08:03:17.826Z,2432
2017-08-11T08:04:17.823Z,2412
2017-08-11T08:05:17.516Z,2396
2017-08-11T08:06:17.505Z,2384
2017-08-11T08:07:17.806Z,2392
2017-08-11T08:08:17.509Z,2408
2017-08-11T08:09:17.807Z,2412
2017-08-11T08:10:17.491Z,2380
2017-08-11T08:11:17.788Z,2380
2017-08-11T08:12:17.783Z,2388
2017-08-11T08:13:17.782Z,2416
2017-08-11T08:14:17.776Z,2412
2017-08-11T08:15:17.781Z,2420
2017-08-11T08:16:17.764Z,2468
2017-08-11T08:17:17.765Z,2512
2017-08-11T08:18:17.758Z,2504
2017-08-11T08:19:17.749Z,2496
2017-08-11T08:20:17.744Z,2508
2017-08-11T08:21:17.742Z,2548
2017-08-11T08:22:17.737Z,2604
2017-08-11T08:23:17.821Z,2608
2017-08-11T08:24:17.730Z,2564
2017-08-11T08:25:17.726Z,2464
2017-08-11T08:26:17.410Z,2320
2017-08-11T08:27:17.713Z,2168
2017-08-11T08:28:17.718Z,2068
2017-08-11T08:29:17.705Z,2012
2017-08-11T08:30:17.702Z,1988
2017-08-11T08:31:17.694Z,1984
2017-08-11T08:32:17.693Z,1992
2017-08-11T08:33:17.689Z,2016
2017-08-11T08:34:17.682Z,2004
2017-08-11T08:35:17.675Z,1952
2017-08-11T08:36:17.676Z,1880
2017-08-11T08:37:17.362Z,1856
2017-08-11T08:38:17.363Z,1920
2017-08-11T08:39:17.654Z,1996
2017-08-11T08:40:17.653Z,1984
2017-08-11T08:41:17.646Z,1896
2017-08-11T08:42:17.648Z,1828
2017-08-11T08:43:17.643Z,1840
2017-08-11T08:44:17.636Z,1908
2017-08-11T08:45:17.639Z,1988
2017-08-11T08:46:17.324Z,2048
2017-08-11T08:47:17.621Z,2056
2017-08-11T08:48:17.614Z,1988
2017-08-11T08:49:17.611Z,1780
2017-08-11T08:50:17.300Z,1600
2017-08-11T08:51:17.614Z,1572
2017-08-11T08:52:17.601Z,1584
2017-08-11T08:53:17.595Z,1612
2017-08-11T08:54:17.587Z,1756
2017-08-11T08:55:17.586Z,1904
2017-08-11T08:56:17.580Z,1992
2017-08-11T08:57:17.577Z,2064
2017-08-11T08:58:17.269Z,2128
2017-08-11T08:59:17.562Z,2140
2017-08-11T09:00:17.562Z,2172
2017-08-11T09:01:17.554Z,2140
2017-08-11T09:02:17.556Z,2128
2017-08-11T09:03:17.545Z,2148
2017-08-11T09:04:17.243Z,2156
2017-08-11T09:05:17.543Z,2160
2017-08-11T09:06:17.225Z,2132
2017-08-11T09:07:16.920Z,2080
2017-08-11T09:08:17.559Z,2080
2017-08-11T09:09:17.531Z,2112
2017-08-11T09:10:17.520Z,2104
2017-08-11T09:11:17.509Z,2036
2017-08-11T09:12:17.498Z,1944
2017-08-11T09:13:17.506Z,1820
2017-08-11T09:14:17.497Z,1692
2017-08-11T09:15:17.490Z,1592
2017-08-11T09:16:16.905Z,1524
2017-08-11T09:17:17.178Z,1468
2017-08-11T09:18:17.477Z,1376
2017-08-11T09:19:17.468Z,1276
2017-08-11T09:20:17.468Z,1204
2017-08-11T09:21:17.460Z,1188
2017-08-11T09:22:17.460Z,1256
2017-08-11T09:23:17.144Z,1356
2017-08-11T09:24:17.443Z,1440
2017-08-11T09:25:17.440Z,1500
2017-08-11T09:26:17.434Z,1536
2017-08-11T09:27:17.124Z,1544
2017-08-11T09:28:16.820Z,1544
2017-08-11T09:29:17.425Z,1528
2017-08-11T09:30:17.419Z,1496
2017-08-11T09:31:17.110Z,1524
2017-08-11T09:32:17.101Z,1628
2017-08-11T09:33:17.098Z,1812
2017-08-11T09:34:17.093Z,2004
2017-08-11T09:35:17.095Z,2156
2017-08-11T09:36:16.780Z,2240
2017-08-11T09:37:17.381Z,2296
2017-08-11T09:38:17.078Z,2292
2017-08-11T09:39:17.067Z,2212
2017-08-11T09:40:17.071Z,2076
2017-08-11T09:41:17.062Z,1972
2017-08-11T09:42:17.380Z,1936
2017-08-11T09:43:17.049Z,1924
2017-08-11T09:44:17.053Z,1928
2017-08-11T09:45:17.348Z,1948
2017-08-11T09:46:17.038Z,1956
2017-08-11T09:47:17.034Z,1904
2017-08-11T09:48:17.029Z,1688
2017-08-11T09:49:17.326Z,1472
2017-08-11T09:50:17.019Z,1380
2017-08-11T09:51:17.322Z,1416
2017-08-11T09:52:17.001Z,1548
2017-08-11T09:53:17.313Z,1680
2017-08-11T09:54:17.004Z,1796
2017-08-11T09:55:17.299Z,1876
2017-08-11T09:56:17.295Z,1924
2017-08-11T09:57:17.294Z,1980
2017-08-11T09:58:17.292Z,1980
2017-08-11T09:59:17.290Z,1932
2017-08-11T10:00:17.276Z,1856
2017-08-11T10:01:16.662Z,1708
2017-08-11T10:02:16.654Z,1604
2017-08-11T10:03:16.965Z,1544
2017-08-11T10:04:16.957Z,1536
2017-08-11T10:05:17.262Z,1504
2017-08-11T10:06:16.940Z,1344
2017-08-11T10:07:17.241Z,1172
2017-08-11T10:08:16.929Z,1128
2017-08-11T10:09:16.620Z,1128
2017-08-11T10:10:16.922Z,1168
2017-08-11T10:11:17.225Z,1204
2017-08-11T10:12:16.916Z,1252
2017-08-11T10:13:16.909Z,1352
2017-08-11T10:14:16.607Z,1460
2017-08-11T10:15:16.894Z,1512
2017-08-11T10:16:17.203Z,1452
2017-08-11T10:17:16.584Z,1312
2017-08-11T10:18:16.583Z,1240
2017-08-11T10:19:17.183Z,1272
2017-08-11T10:20:16.570Z,1300
2017-08-11T10:21:17.177Z,1272
2017-08-11T10:22:17.174Z,1208
2017-08-11T10:23:17.170Z,1176
2017-08-11T10:24:17.161Z,1244
2017-08-11T10:25:17.161Z,1304
2017-08-11T10:26:17.152Z,1348
2017-08-11T10:27:16.843Z,1316
2017-08-11T10:28:17.142Z,1216
2017-08-11T10:29:17.133Z,1192
2017-08-11T10:30:17.137Z,1292
2017-08-11T10:31:16.817Z,1388
2017-08-11T10:32:17.120Z,1384
2017-08-11T10:33:16.811Z,1336
2017-08-11T10:34:17.114Z,1384
2017-08-11T10:35:16.803Z,1460
2017-08-11T10:36:16.804Z,1512
2017-08-11T10:37:17.102Z,1484
2017-08-11T10:38:16.788Z,1376
2017-08-11T10:39:17.094Z,1236
2017-08-11T10:40:17.083Z,1032
2017-08-11T10:41:16.775Z,872
2017-08-11T10:42:17.073Z,760
2017-08-11T10:43:16.461Z,712
2017-08-11T10:44:16.762Z,700
2017-08-11T10:45:17.060Z,724
2017-08-11T10:46:17.063Z,780
2017-08-11T10:47:17.049Z,912
2017-08-11T10:48:16.744Z,1028
2017-08-11T10:49:16.428Z,1116
2017-08-11T10:50:17.039Z,1132
2017-08-11T10:51:16.732Z,1108
2017-08-11T10:52:16.717Z,1092
2017-08-11T10:53:17.026Z,1128
2017-08-11T10:54:17.015Z,1208
2017-08-11T10:55:17.013Z,1288
2017-08-11T10:56:16.705Z,1340
2017-08-11T10:57:17.006Z,1384
2017-08-11T10:58:16.996Z,1492
2017-08-11T10:59:16.993Z,1648
2017-08-11T11:00:16.991Z,1760
2017-08-11T11:01:16.981Z,1820
2017-08-11T11:02:16.979Z,1832
2017-08-11T11:03:16.980Z,1828
2017-08-11T11:04:16.969Z,1848
2017-08-11T11:05:16.972Z,1860
2017-08-11T11:06:16.961Z,1840
2017-08-11T11:07:16.959Z,1796
2017-08-11T11:08:16.948Z,1724
2017-08-11T11:09:16.944Z,1716
2017-08-11T11:10:16.966Z,1788
2017-08-11T11:11:16.930Z,1844
2017-08-11T11:12:16.626Z,1864
2017-08-11T11:13:16.920Z,1672
2017-08-11T11:14:16.926Z,1536
2017-08-11T11:15:16.922Z,1560
2017-08-11T11:16:16.910Z,1592
2017-08-11T11:17:16.905Z,1548
2017-08-11T11:18:16.901Z,1436
2017-08-11T11:19:16.896Z,1296
2017-08-11T11:20:16.887Z,1180
2017-08-11T11:21:16.895Z,1104
2017-08-11T11:22:16.580Z,1052
2017-08-11T11:23:16.873Z,1000
2017-08-11T11:24:16.869Z,964
2017-08-11T11:25:16.562Z,948
2017-08-11T11:26:16.856Z,936
2017-08-11T11:27:16.555Z,904
2017-08-11T11:28:16.855Z,828
2017-08-11T11:29:16.853Z,748
2017-08-11T11:30:16.840Z,688
2017-08-11T11:31:16.838Z,648
2017-08-11T11:32:16.839Z,640
2017-08-11T11:33:16.828Z,644
2017-08-11T11:34:16.827Z,644
2017-08-11T11:35:16.816Z,660
2017-08-11T11:36:16.810Z,712
2017-08-11T11:37:16.501Z,736
2017-08-11T11:38:16.815Z,736
2017-08-11T11:39:16.797Z,716
2017-08-11T11:40:16.794Z,688
2017-08-11T11:41:16.797Z,652
2017-08-11T11:42:16.782Z,620
2017-08-11T11:43:16.777Z,588
2017-08-11T11:44:16.773Z,560
2017-08-11T11:45:16.775Z,528
2017-08-11T11:46:16.461Z,504
2017-08-11T11:47:16.767Z,484
2017-08-11T11:48:16.448Z,456
2017-08-11T11:49:16.750Z,424
2017-08-11T11:50:16.760Z,400
2017-08-11T11:51:16.428Z,388
2017-08-11T11:52:16.734Z,380
2017-08-11T11:53:16.733Z,372
2017-08-11T11:54:16.725Z,364
2017-08-11T11:55:16.415Z,364
2017-08-11T11:56:16.712Z,364
2017-08-11T11:57:16.704Z,372
2017-08-11T11:58:16.699Z,380
2017-08-11T11:59:16.084Z,384
2017-08-11T12:00:16.696Z,388
2017-08-11T12:01:16.687Z,380
2017-08-11T12:02:16.683Z,364
2017-08-11T12:03:16.680Z,344
2017-08-11T12:04:16.678Z,328
2017-08-11T12:05:16.670Z,304
2017-08-11T12:06:16.669Z,284
2017-08-11T12:07:16.398Z,292
2017-08-11T12:08:16.653Z,308
2017-08-11T12:09:16.342Z,336
2017-08-11T12:10:16.644Z,356
2017-08-11T12:11:16.644Z,348
2017-08-11T12:12:16.327Z,336
2017-08-11T12:13:16.627Z,320
2017-08-11T12:14:16.316Z,284
2017-08-11T12:15:16.616Z,272
2017-08-11T12:16:16.344Z,284
2017-08-11T12:17:16.308Z,292
2017-08-11T12:18:16.329Z,312
2017-08-11T12:19:16.296Z,368
2017-08-11T12:20:16.596Z,456
2017-08-11T12:21:16.592Z,520
2017-08-11T12:22:16.584Z,552
2017-08-11T12:23:16.275Z,556
2017-08-11T12:24:16.274Z,544
2017-08-11T12:25:16.265Z,528
2017-08-11T12:26:16.259Z,504
2017-08-11T12:27:16.562Z,484
2017-08-11T12:28:16.243Z,428
2017-08-11T12:29:16.245Z,400
2017-08-11T12:30:16.239Z,416
2017-08-11T12:31:15.933Z,464
2017-08-11T12:32:16.542Z,472
2017-08-11T12:33:16.229Z,448
2017-08-11T12:34:16.216Z,420
2017-08-11T12:35:16.217Z,404
2017-08-11T12:36:16.205Z,404
2017-08-11T12:37:16.202Z,432
2017-08-11T12:38:16.196Z,456
2017-08-11T12:39:16.500Z,428
2017-08-11T12:40:16.498Z,400
2017-08-11T12:41:16.185Z,376
2017-08-11T12:42:16.485Z,364
2017-08-11T12:43:16.478Z,320
2017-08-11T12:44:16.472Z,276
2017-08-11T12:45:16.469Z,244
2017-08-11T12:46:16.157Z,220
2017-08-11T12:47:16.149Z,228
2017-08-11T12:48:16.456Z,280
2017-08-11T12:49:16.457Z,344
2017-08-11T12:50:16.444Z,436
2017-08-11T12:51:16.438Z,532
2017-08-11T12:52:16.432Z,528
2017-08-11T12:53:16.430Z,492
2017-08-11T12:54:16.118Z,500
2017-08-11T12:55:16.116Z,428
2017-08-11T12:56:16.410Z,372
2017-08-11T12:57:16.100Z,408
2017-08-11T12:58:16.402Z,444
2017-08-11T12:59:16.397Z,480
2017-08-11T13:00:16.391Z,476
2017-08-11T13:01:16.083Z,440
2017-08-11T13:02:16.386Z,416
2017-08-11T13:03:16.385Z,424
2017-08-11T13:04:16.371Z,472
2017-08-11T13:05:16.367Z,508
2017-08-11T13:06:16.357Z,536
2017-08-11T13:07:16.352Z,536
2017-08-11T13:08:16.350Z,556
2017-08-11T13:09:16.341Z,568
2017-08-11T13:10:16.340Z,588
2017-08-11T13:11:16.333Z,604
2017-08-11T13:12:16.023Z,596
2017-08-11T13:13:16.326Z,580
2017-08-11T13:14:16.321Z,588
2017-08-11T13:15:16.312Z,596
2017-08-11T13:16:16.003Z,604
2017-08-11T13:17:16.301Z,608
2017-08-11T13:18:16.302Z,608
2017-08-11T13:19:16.298Z,604
2017-08-11T13:20:15.986Z,600
2017-08-11T13:21:15.979Z,592
2017-08-11T13:22:16.280Z,576
2017-08-11T13:23:16.279Z,552
2017-08-11T13:24:16.267Z,536
2017-08-11T13:25:16.266Z,528
2017-08-11T13:26:16.263Z,512
2017-08-11T13:27:16.253Z,504
2017-08-11T13:28:16.243Z,492
2017-08-11T13:29:16.245Z,456
2017-08-11T13:30:16.236Z,448
2017-08-11T13:31:16.225Z,468
2017-08-11T13:32:16.228Z,476
2017-08-11T13:33:15.917Z,480
2017-08-11T13:34:16.215Z,504
2017-08-11T13:35:16.208Z,544
2017-08-11T13:36:16.208Z,556
2017-08-11T13:37:16.204Z,564
2017-08-11T13:38:15.893Z,572
2017-08-11T13:39:16.200Z,620
2017-08-11T13:40:16.186Z,712
2017-08-11T13:41:15.877Z,800
2017-08-11T13:42:16.182Z,820
2017-08-11T13:43:15.862Z,748
2017-08-11T13:44:16.166Z,796
2017-08-11T13:45:16.162Z,884
2017-08-11T13:46:16.150Z,952
2017-08-11T13:47:16.150Z,952
2017-08-11T13:48:16.144Z,964
2017-08-11T13:49:16.138Z,972
2017-08-11T13:50:16.139Z,980
2017-08-11T13:51:16.137Z,984
2017-08-11T13:52:16.124Z,932
2017-08-11T13:53:16.128Z,948
2017-08-11T13:54:15.832Z,896